Flight Track Log - Related Links

Times and Time Zones

All times are in EDT time to prevent confusion due to time zone crossing. See the DAL5996 flight status page for this flight to view local times or setup timezone preferences in your user account.

Time Position Orientation Groundspeed Altitude Reporting Facility
EDT Latitude Longitude Course Direction KTS MPH feet Rate Location/Type
Wed 06:36:06 AM 32.9333 -97.0333 North 167 192 2,900  Level Dallas / Fort Worth TRACON
Wed 06:37:12 AM 33.0000 -97.0333 360° North 215 247 5,600 2,679 Climbing Dallas / Fort Worth TRACON
Wed 06:38:00 AM 33.0290 -96.8000 North  Level FlightAware Approximate
Wed 06:38:54 AM 33.1125 -97.0067 11° North 277 319 10,400  Level Fort Worth Center
Wed 06:39:00 AM 33.1653 -96.8062 357° North  Level FlightAware Approximate
Wed 06:39:54 AM 33.2000 -96.9592 24° Northeast 302 348 12,500  Level Fort Worth Center
Wed 06:40:00 AM 33.3017 -96.8147 357° North  Level FlightAware Approximate
Wed 06:40:54 AM 33.2833 -96.9164 23° Northeast 341 392 14,500  Level Fort Worth Center
Wed 06:41:00 AM 33.4381 -96.8167 North  Level FlightAware Approximate
Wed 06:41:54 AM 33.3811 -96.8636 24° Northeast 369 425 16,800  Level Fort Worth Center
Wed 06:42:54 AM 33.4914 -96.7983 26° Northeast 390 449 18,700 1,950 Climbing Fort Worth Center
Wed 06:43:54 AM 33.5808 -96.7403 28° Northeast 403 464 20,700 2,000 Climbing Fort Worth Center
Wed 06:44:54 AM 33.6975 -96.6644 28° Northeast 415 478 22,700 1,750 Climbing Fort Worth Center
Wed 06:45:54 AM 33.8117 -96.5911 28° Northeast 437 503 24,200 1,400 Climbing Fort Worth Center
Wed 06:46:54 AM 33.9114 -96.5275 28° Northeast 449 517 25,500 1,450 Climbing Fort Worth Center
Wed 06:47:54 AM 34.0300 -96.4511 28° Northeast 466 536 27,100 1,400 Climbing Fort Worth Center
Wed 06:48:54 AM 34.1356 -96.3697 33° Northeast 466 536 28,300 1,200 Climbing Fort Worth Center
Wed 06:49:54 AM 34.2517 -96.2778 33° Northeast 472 543 29,500 1,200 Climbing Fort Worth Center
Wed 06:50:54 AM 34.3656 -96.1833 34° Northeast 482 555 30,700 1,150 Climbing Fort Worth Center
Wed 06:51:54 AM 34.4794 -96.0858 35° Northeast 487 560 31,800 1,250 Climbing Fort Worth Center
Wed 06:52:54 AM 34.5931 -95.9958 33° Northeast 487 560 33,200 1,200 Climbing Fort Worth Center
Wed 06:53:54 AM 34.7025 -95.9031 35° Northeast 487 560 34,200 900 Climbing Fort Worth Center
Wed 06:54:54 AM 34.8203 -95.8050 34° Northeast 493 567 35,000 500 Climbing Fort Worth Center
Wed 06:55:54 AM 34.9358 -95.7014 36° Northeast 499 574 35,200 588 Climbing Fort Worth Center
Wed 06:58:18 AM 35.2092 -95.4436 38° Northeast 511 588 37,000 529 Climbing Kansas City Center
Wed 06:59:18 AM 35.3233 -95.3350 38° Northeast 516 594 37,000  Level Kansas City Center
Wed 07:00:21 AM 35.4422 -95.2244 37° Northeast 517 595 37,000  Level Memphis Center
Wed 07:01:21 AM 35.5592 -95.1139 38° Northeast 524 603 37,000  Level Memphis Center
Wed 07:02:21 AM 35.6761 -95.0006 38° Northeast 529 609 37,000  Level Memphis Center
Wed 07:03:21 AM 35.7928 -94.8869 38° Northeast 529 609 37,000  Level Memphis Center
Wed 07:04:21 AM 35.9075 -94.7728 39° Northeast 529 609 37,000  Level Memphis Center
Wed 07:05:21 AM 36.0261 -94.6608 37° Northeast 529 609 37,000  Level Memphis Center
Wed 07:07:20 AM 36.2575 -94.4328 38° Northeast 539 620 37,000  Level Kansas City Center
Wed 07:08:22 AM 36.3739 -94.3194 38° Northeast 537 618 37,000  Level Kansas City Center
Wed 07:09:22 AM 36.4906 -94.2031 39° Northeast 537 618 37,000  Level Kansas City Center
Wed 07:10:21 AM 36.6089 -94.0858 38° Northeast 541 623 37,000  Level Kansas City Center
Wed 07:11:23 AM 36.7269 -93.9689 38° Northeast 542 624 37,000  Level Kansas City Center
Wed 07:12:24 AM 36.8464 -93.8522 38° Northeast 545 627 37,000  Level Kansas City Center
Wed 07:13:23 AM 36.9819 -93.7156 39° Northeast 543 625 37,000  Level Kansas City Center
Wed 07:14:25 AM 37.0994 -93.5958 39° Northeast 542 624 37,000  Level Kansas City Center
Wed 07:15:23 AM 37.2181 -93.4767 39° Northeast 544 626 37,000  Level Kansas City Center
Wed 07:16:26 AM 37.3364 -93.3556 39° Northeast 545 627 37,000  Level Kansas City Center
Wed 07:17:27 AM 37.4308 -93.2017 52° Northeast 554 638 37,000  Level Kansas City Center
Wed 07:18:27 AM 37.5186 -93.0403 56° Northeast 557 641 37,000  Level Kansas City Center
Wed 07:19:28 AM 37.6064 -92.8794 55° Northeast 557 641 37,000  Level Kansas City Center
Wed 07:20:28 AM 37.6928 -92.7158 56° Northeast 567 652 37,000  Level Kansas City Center
Wed 07:21:30 AM 37.7819 -92.5497 56° Northeast 574 661 37,000  Level Kansas City Center
Wed 07:22:28 AM 37.8686 -92.3886 56° Northeast 564 649 37,000  Level Kansas City Center
Wed 07:23:28 AM 37.9569 -92.2242 56° Northeast 563 648 37,000  Level Kansas City Center
Wed 07:24:29 AM 38.0400 -92.0675 56° Northeast 563 648 37,000  Level Kansas City Center
Wed 07:25:31 AM 38.1283 -91.9022 56° Northeast 565 650 37,000  Level Kansas City Center
Wed 07:26:33 AM 38.2156 -91.7344 56° Northeast 566 651 37,000  Level Kansas City Center
Wed 07:27:31 AM 38.3031 -91.5667 56° Northeast 566 651 37,000  Level Kansas City Center
Wed 07:28:35 AM 38.3919 -91.3989 56° Northeast 568 654 37,000  Level Kansas City Center
Wed 07:29:36 AM 38.4811 -91.2236 57° Northeast 569 655 37,000  Level Kansas City Center
Wed 07:30:36 AM 38.5681 -91.0547 57° Northeast 568 654 37,000  Level Kansas City Center
Wed 07:31:37 AM 38.6547 -90.8878 56° Northeast 563 648 37,000  Level Kansas City Center
Wed 07:32:36 AM 38.7417 -90.7203 56° Northeast 560 644 37,000 -595 Level Kansas City Center
Wed 07:33:38 AM 38.8439 -90.5256 56° Northeast 561 646 35,800 -976 Descending Kansas City Center
Wed 07:34:39 AM 38.9272 -90.3583 57° Northeast 555 639 35,000 -393 Descending Kansas City Center
Wed 07:35:40 AM 39.0028 -90.2103 57° Northeast 561 646 35,000  Level Kansas City Center
Wed 07:36:40 AM 39.0883 -90.0411 57° Northeast 562 647 35,000  Level Kansas City Center
Wed 07:37:41 AM 39.1836 -89.8500 57° Northeast 562 647 35,000  Level Kansas City Center
Wed 07:38:43 AM 39.2583 -89.7025 57° Northeast 563 648 35,000  Level Kansas City Center
Wed 07:39:42 AM 39.3417 -89.5328 58° Northeast 561 646 35,000  Level Kansas City Center
Wed 07:40:43 AM 39.4292 -89.3192 62° Northeast 560 644 35,000  Level Kansas City Center
Wed 07:41:46 AM 39.4939 -89.1603 62° Northeast 560 644 35,000  Level Kansas City Center
Wed 07:42:46 AM 39.5647 -88.9814 63° Northeast 560 644 35,000  Level Kansas City Center
Wed 07:43:47 AM 39.6514 -88.8117 56° Northeast 565 650 35,000  Level Kansas City Center
Wed 07:44:48 AM 39.7400 -88.6456 55° Northeast 564 649 35,000  Level Kansas City Center
Wed 07:45:48 AM 39.8097 -88.4650 63° Northeast 563 648 35,000  Level Kansas City Center
Wed 07:46:50 AM 39.8919 -88.2472 64° Northeast 560 644 35,000  Level Kansas City Center
Wed 07:47:51 AM 39.9586 -88.0669 64° Northeast 557 641 35,000  Level Kansas City Center
Wed 07:48:52 AM 40.0261 -87.8864 64° Northeast 556 640 35,000  Level Kansas City Center
Wed 07:49:39 AM 40.0839 -87.7306 64° Northeast 561 646 35,000  Level Indianapolis Center
Wed 07:50:41 AM 40.1519 -87.5447 64° Northeast 563 648 35,000  Level Indianapolis Center
Wed 07:51:02 AM 40.1758 -87.4817 64° Northeast 565 650 35,000  Level Chicago Center
Wed 07:52:04 AM 40.2425 -87.2958 65° Northeast 561 646 35,000 -537 Level Chicago Center
Wed 07:53:05 AM 40.3097 -87.1111 64° Northeast 558 642 33,900 -976 Descending Chicago Center
Wed 07:54:07 AM 40.3764 -86.9247 65° Northeast 558 642 33,000 -439 Descending Chicago Center
Wed 07:55:08 AM 40.4431 -86.7403 65° Northeast 555 639 33,000  Level Chicago Center
Wed 07:56:10 AM 40.5097 -86.5550 65° Northeast 556 640 33,000  Level Chicago Center
Wed 07:57:12 AM 40.5747 -86.3692 65° Northeast 554 638 33,000  Level Chicago Center
Wed 07:58:13 AM 40.6403 -86.1825 65° Northeast 557 641 33,000 -341 Level Chicago Center
Wed 07:59:15 AM 40.7103 -85.9778 66° East 554 638 32,300 -1,073 Descending Chicago Center
Wed 08:00:16 AM 40.7714 -85.7928 66° East 554 638 30,800 -1,512 Descending Chicago Center
Wed 08:01:18 AM 40.8328 -85.6150 65° Northeast 543 625 29,200 -1,500 Descending Chicago Center
Wed 08:02:20 AM 40.8914 -85.4444 66° East 522 601 27,700 -1,707 Descending Chicago Center
Wed 08:03:21 AM 40.9492 -85.2753 66° East 514 592 25,700 -2,732 Descending Chicago Center
Wed 08:04:23 AM 41.0531 -85.1081 50° Northeast 504 580 22,100 -2,274 Descending Chicago Center
Wed 08:05:25 AM 41.1544 -84.9992 39° Northeast 479 551 21,000 -537 Descending Chicago Center
Wed 08:06:26 AM 41.2539 -84.8922 39° Northeast 466 536 21,000  Level Chicago Center
Wed 08:07:28 AM 41.3536 -84.7850 39° Northeast 465 535 21,000 -48 Level Chicago Center
Wed 08:08:30 AM 41.4506 -84.6733 41° Northeast 464 534 20,900 -585 Descending Chicago Center
Wed 08:08:50 AM 41.4822 -84.6219 51° Northeast 461 531 20,200 -1,950 Descending Cleveland Center
Wed 08:09:50 AM 41.5642 -84.4856 51° Northeast 461 531 18,300 -2,000 Descending Cleveland Center
Wed 08:10:44 AM 41.6394 -84.3539 53° Northeast 454 522 16,400 -1,922 Descending Cleveland Center
Wed 08:11:33 AM 41.6989 -84.2544 51° Northeast 431 496 15,000 -1,636 Descending Cleveland Center
Wed 08:11:50 AM 41.7189 -84.2194 53° Northeast 441 507 14,600 -1,612 Descending Cleveland Center
Wed 08:12:40 AM 41.7761 -84.1222 52° Northeast 385 443 13,200 -1,405 Descending Cleveland Center
Wed 08:13:41 AM 41.8419 -84.0144 51° Northeast 363 418 12,000 -1,091 Descending Cleveland Center
Wed 08:14:41 AM 41.9131 -83.9344 40° Northeast 329 379 11,000 -1,537 Descending Cleveland Center
Wed 08:15:42 AM 41.9897 -83.8800 28° Northeast 319 367 8,900 -1,820 Descending Cleveland Center
Wed 08:16:43 AM 42.0625 -83.8164 33° Northeast 315 362 7,300 -984 Descending Cleveland Center
Wed 08:17:50 AM 42.0489 -83.7067 99° East 225 259 6,800 -448 Descending Cleveland Center
Wed 08:17:50 AM 42.0489 -83.7067 99° East 250 288 6,800 -1,091 Level Cleveland Center
Wed 08:18:45 AM 42.0342 -83.6306 105° East 214 246 5,800 -1,250 Descending Cleveland Center
Wed 08:19:50 AM 42.0278 -83.5519 96° East 214 246 4,300 -894 Descending Cleveland Center
Wed 08:21:53 AM 42.0989 -83.4600 44° Northeast 166 191 3,000 -695 Descending Cleveland Center
Wed 08:23:00 AM 42.1394 -83.4311 28° Northeast 139 160 2,100 -806 Descending Cleveland Center

Login

Don't have an account? Register now (free) for customized features, flight alerts, and more!